Amherst, Canada
Current Conditions -  °F | °C
As of 12:00 AM on Friday 28 Nov 2014 (Local Time) from CYQM Reporting Station
Snow Showers Snow Showers  
Wind Chill: -11°   Ceiling: 2800
Heat Index: -5°   Visibility: 15mi
Dew Point: -8°   Wind: 12mph
Humidity: 80%   Direction: 300°WNW
Pressure: 29.95"   Gusts: NA
Location:  45.85°N, 64.27°W
Report Text: CYQM 280400Z 30010KT 15SM -SHSN OVC028 M05/M08 A2995 RMK SC8 SLP147
Loading
Personal Weather Stations






























Interactive Weather Map New forecast layout! Learn more

10-Day Weather Forecast

Advertisements
Track Severe Weather on mobile